Decoded Metar for KFSD (SIOUX FALLS in SD, USA) (IATA:FSD) | Meteo·Mobile Aviation Weather
aviador You're here:

KFSD Decoded Metar

SIOUX FALLS in SD, USA
Report Time2019-01-19 04:56:00
UTC Time2019-01-19 05:57:25
Flight Rules vfr VFR
Wind030° at 12 kt
W.Decomp.*RWY 03: 12.0 kt HW 1 kt LCW
RWY 33: 6.9 kt HW 9.8 kt RCW
RWY 09: 5.1 kt HW 10.9 kt LCW
W.Rank030° ranks 18
Current wind is above 030° avg. (7.8)
Visibility9999 m
Phenomena:Light Snow
Clouds:Overcast 060 Hf
Expected CloudBase > 800 ft AGL from Temp-Dew spread
Ceiling6,000 ft
Temp-16°C (ISA -28)
Dew Point-18°C (85% RH)
AAT-23.8°C
QNH1026 hPa
Density Alt-2,549 ft
Elevation1,430 ft
Report Wrong Elevation
Raw Report
KFSD 190456Z 03012KT 8SM -SN OVC060 M16/M18 A3031 RMK AO2 SLP298
P0000 T11561183 $=

Extra information for KFSD:More info

Metar Taf Metar & Taf Last 4 Metars F.Rules Stats Wind Profile Meteogram Temp Stats Airport Information Weather charts Add Link Nearby VenuesMetar ALERT Operation Metar Decoded Social comments

AIRNAV info for KFSD